createdAt,value
2018-12-14T00:01:11.219Z,22.00
2018-12-14T00:03:39.855Z,23.07
2018-12-14T00:06:08.376Z,22.43
2018-12-14T00:08:37.376Z,25.27
2018-12-14T00:11:05.948Z,23.80
2018-12-14T00:13:34.428Z,23.20
2018-12-14T00:16:03.677Z,23.70
2018-12-14T00:18:32.234Z,23.43
2018-12-14T00:21:01.736Z,24.47
2018-12-14T00:23:30.963Z,25.53
2018-12-14T00:26:00.017Z,26.00
2018-12-14T00:28:28.513Z,24.77
2018-12-14T00:30:57.147Z,26.00
2018-12-14T00:33:25.719Z,23.90
2018-12-14T00:35:54.181Z,23.13
2018-12-14T00:38:22.859Z,22.60
2018-12-14T00:40:52.048Z,25.87
2018-12-14T00:43:20.654Z,24.70
2018-12-14T00:45:49.231Z,23.37
2018-12-14T00:48:17.705Z,25.53
2018-12-14T00:50:46.247Z,26.87
2018-12-14T00:53:15.514Z,26.50
2018-12-14T00:55:44.901Z,27.00
2018-12-14T00:58:14.131Z,25.47
2018-12-14T01:00:43.385Z,26.47
2018-12-14T01:03:11.951Z,24.80
2018-12-14T01:05:40.451Z,23.17
2018-12-14T01:08:09.319Z,23.63
2018-12-14T01:10:37.797Z,22.37
2018-12-14T01:13:06.378Z,23.40
2018-12-14T01:15:35.608Z,23.83
2018-12-14T01:18:04.047Z,21.77
2018-12-14T01:20:33.080Z,23.67
2018-12-14T01:23:01.862Z,26.90
2018-12-14T01:25:30.734Z,26.50
2018-12-14T01:28:00.058Z,24.37
2018-12-14T01:30:28.739Z,22.63
2018-12-14T01:32:57.303Z,23.37
2018-12-14T01:35:25.816Z,23.37
2018-12-14T01:37:54.359Z,22.67
2018-12-14T01:40:23.563Z,20.37
2018-12-14T01:42:52.084Z,26.37
2018-12-14T01:45:20.696Z,22.93
2018-12-14T01:47:49.344Z,21.83
2018-12-14T01:50:17.933Z,21.90
2018-12-14T01:52:46.550Z,23.87
2018-12-14T01:55:15.094Z,22.27
2018-12-14T01:57:43.635Z,23.97
2018-12-14T02:00:12.262Z,24.23
2018-12-14T02:02:40.820Z,22.33
2018-12-14T02:05:09.383Z,22.27
2018-12-14T02:07:38.194Z,21.93
2018-12-14T02:10:06.753Z,22.67
2018-12-14T02:12:35.254Z,23.70
2018-12-14T02:15:03.973Z,26.23
2018-12-14T02:17:32.457Z,24.07
2018-12-14T02:20:01.756Z,25.53
2018-12-14T02:22:30.260Z,24.70
2018-12-14T02:24:59.835Z,22.83
2018-12-14T02:27:28.369Z,21.40
2018-12-14T02:29:56.850Z,26.80
2018-12-14T02:32:25.547Z,24.70
2018-12-14T02:34:54.061Z,19.37
2018-12-14T02:37:22.514Z,22.07
2018-12-14T02:39:50.981Z,21.73
2018-12-14T02:42:19.611Z,24.27
2018-12-14T02:44:48.251Z,23.93
2018-12-14T02:47:17.348Z,23.83
2018-12-14T02:49:45.901Z,24.87
2018-12-14T02:52:14.393Z,25.60
2018-12-14T02:54:42.904Z,24.07
2018-12-14T02:57:11.659Z,20.33
2018-12-14T02:59:40.146Z,21.97
2018-12-14T03:02:08.857Z,21.00
2018-12-14T03:04:37.990Z,22.90
2018-12-14T03:07:06.480Z,26.53
2018-12-14T03:09:35.536Z,21.77
2018-12-14T03:12:04.220Z,21.83
2018-12-14T03:14:32.844Z,20.67
2018-12-14T03:17:01.539Z,19.47
2018-12-14T03:19:30.073Z,19.37
2018-12-14T03:21:58.615Z,19.70
2018-12-14T03:24:27.783Z,22.23
2018-12-14T03:26:56.235Z,19.30
2018-12-14T03:29:25.013Z,20.80
2018-12-14T03:31:53.629Z,17.17
2018-12-14T03:34:22.131Z,19.80
2018-12-14T03:36:50.976Z,20.80
2018-12-14T03:39:19.600Z,20.93
2018-12-14T03:41:48.105Z,19.37
2018-12-14T03:44:16.897Z,20.00
2018-12-14T03:46:46.185Z,19.33
2018-12-14T03:49:15.452Z,20.27
2018-12-14T03:51:44.500Z,23.63
2018-12-14T03:54:13.227Z,21.00
2018-12-14T03:56:42.401Z,20.50
2018-12-14T03:59:10.973Z,20.07
2018-12-14T04:01:39.560Z,20.57
2018-12-14T04:04:08.027Z,23.37
2018-12-14T04:06:36.737Z,24.37
2018-12-14T04:09:06.605Z,23.23
2018-12-14T04:11:35.146Z,20.53
2018-12-14T04:14:03.880Z,21.63
2018-12-14T04:16:32.344Z,19.13
2018-12-14T04:19:01.827Z,19.17
2018-12-14T04:21:30.299Z,21.40
2018-12-14T04:23:58.917Z,21.37
2018-12-14T04:26:27.409Z,21.63
2018-12-14T04:28:55.979Z,21.87
2018-12-14T04:31:24.443Z,18.97
2018-12-14T04:33:53.023Z,21.63
2018-12-14T04:36:21.722Z,20.87
2018-12-14T04:38:50.807Z,20.90
2018-12-14T04:41:19.324Z,21.93
2018-12-14T04:43:48.488Z,15.07
2018-12-14T04:46:17.554Z,20.27
2018-12-14T04:48:46.855Z,19.20
2018-12-14T04:51:15.783Z,20.57
2018-12-14T04:53:44.255Z,20.37
2018-12-14T04:56:13.544Z,18.83
2018-12-14T04:58:42.612Z,19.10
2018-12-14T05:01:11.093Z,20.17
2018-12-14T05:03:39.605Z,20.70
2018-12-14T05:06:08.290Z,19.07
2018-12-14T05:08:37.573Z,20.77
2018-12-14T05:11:06.148Z,19.90
2018-12-14T05:13:35.030Z,20.67
2018-12-14T05:16:04.664Z,21.37
2018-12-14T05:18:33.230Z,19.73
2018-12-14T05:21:02.384Z,18.00
2018-12-14T05:23:30.860Z,19.20
2018-12-14T05:26:00.361Z,18.93
2018-12-14T05:28:29.161Z,19.40
2018-12-14T05:30:57.672Z,18.77
2018-12-14T05:33:26.164Z,21.87
2018-12-14T05:35:54.674Z,21.17
2018-12-14T05:38:23.520Z,18.80
2018-12-14T05:40:52.593Z,21.63
2018-12-14T05:43:21.799Z,20.77
2018-12-14T05:45:50.382Z,19.37
2018-12-14T05:48:18.954Z,20.43
2018-12-14T05:50:48.709Z,16.00
2018-12-14T05:53:18.016Z,18.70
2018-12-14T05:55:46.544Z,20.37
2018-12-14T05:58:15.781Z,18.53
2018-12-14T06:00:44.671Z,19.70
2018-12-14T06:03:13.956Z,21.03
2018-12-14T06:05:42.875Z,17.97
2018-12-14T06:08:11.420Z,18.47
2018-12-14T06:10:39.900Z,16.87
2018-12-14T06:13:09.157Z,19.63
2018-12-14T06:15:38.778Z,16.17
2018-12-14T06:18:07.520Z,19.40
2018-12-14T06:20:36.230Z,21.07
2018-12-14T06:23:04.880Z,18.40
2018-12-14T06:25:33.742Z,17.37
2018-12-14T06:28:02.306Z,18.03
2018-12-14T06:30:30.807Z,17.10
2018-12-14T06:32:59.635Z,19.60
2018-12-14T06:35:28.941Z,18.77
2018-12-14T06:37:57.628Z,15.90
2018-12-14T06:40:26.174Z,15.50
2018-12-14T06:42:54.736Z,16.67
2018-12-14T06:45:23.301Z,16.27
2018-12-14T06:47:51.904Z,19.00
2018-12-14T06:50:21.303Z,19.20
2018-12-14T06:52:50.450Z,18.10
2018-12-14T06:55:19.124Z,19.20
2018-12-14T06:57:48.215Z,21.03
2018-12-14T07:00:16.939Z,18.87
2018-12-14T07:02:45.563Z,18.83
2018-12-14T07:05:14.433Z,19.47
2018-12-14T07:07:42.946Z,17.57
2018-12-14T07:10:12.952Z,18.27
2018-12-14T07:12:41.432Z,18.97
2018-12-14T07:15:10.163Z,19.93
2018-12-14T07:17:39.320Z,19.77
2018-12-14T07:20:08.018Z,17.17
2018-12-14T07:22:36.463Z,18.80
2018-12-14T07:25:05.245Z,16.73
2018-12-14T07:27:33.856Z,20.27
2018-12-14T07:30:02.808Z,18.10
2018-12-14T07:32:31.718Z,19.17
2018-12-14T07:35:00.224Z,16.13
2018-12-14T07:37:29.520Z,15.70
2018-12-14T07:39:58.761Z,18.10
2018-12-14T07:42:28.192Z,16.97
2018-12-14T07:44:56.751Z,16.60
2018-12-14T07:47:25.419Z,19.33
2018-12-14T07:49:54.674Z,16.17
2018-12-14T07:52:23.164Z,14.90
2018-12-14T07:54:51.760Z,15.50
2018-12-14T07:57:20.304Z,17.13
2018-12-14T07:59:48.893Z,15.93
2018-12-14T08:02:17.473Z,17.67
2018-12-14T08:04:46.096Z,17.43
2018-12-14T08:07:15.191Z,17.17
2018-12-14T08:09:43.864Z,15.17
2018-12-14T08:12:12.379Z,18.77
2018-12-14T08:14:41.220Z,20.00
2018-12-14T08:17:09.811Z,17.37
2018-12-14T08:19:38.470Z,18.47
2018-12-14T08:22:07.299Z,18.10
2018-12-14T08:24:36.048Z,19.57
2018-12-14T08:27:04.533Z,17.67
2018-12-14T08:29:34.340Z,15.17
2018-12-14T08:32:02.857Z,15.27
2018-12-14T08:34:31.721Z,18.07
2018-12-14T08:37:01.147Z,17.90
2018-12-14T08:39:30.298Z,18.17
2018-12-14T08:41:58.801Z,15.77
2018-12-14T08:44:27.994Z,17.27
2018-12-14T08:46:56.588Z,13.97
2018-12-14T08:49:25.176Z,15.00
2018-12-14T08:51:54.524Z,16.73
2018-12-14T08:54:23.789Z,15.93
2018-12-14T08:56:52.858Z,15.93
2018-12-14T08:59:22.098Z,17.77
2018-12-14T09:01:51.330Z,15.37
2018-12-14T09:04:20.572Z,16.87
2018-12-14T09:06:49.105Z,15.40
2018-12-14T09:09:17.693Z,15.60
2018-12-14T09:11:46.206Z,14.13
2018-12-14T09:14:15.123Z,14.60
2018-12-14T09:16:44.342Z,15.30
2018-12-14T09:19:12.896Z,15.87
2018-12-14T09:21:42.197Z,16.43
2018-12-14T09:24:11.548Z,13.37
2018-12-14T09:26:40.862Z,16.47
2018-12-14T09:29:09.688Z,14.63
2018-12-14T09:31:38.240Z,15.70
2018-12-14T09:34:06.848Z,15.97
2018-12-14T09:36:36.100Z,16.63
2018-12-14T09:39:06.019Z,16.70
2018-12-14T09:41:34.540Z,19.43
2018-12-14T09:44:03.213Z,15.20
2018-12-14T09:46:36.993Z,15.63
2018-12-14T09:49:03.803Z,15.03
2018-12-14T09:51:33.755Z,13.80
2018-12-14T09:54:02.530Z,13.70
2018-12-14T09:56:32.316Z,14.53
2018-12-14T09:59:01.135Z,13.13
2018-12-14T10:01:30.428Z,14.80
2018-12-14T10:03:59.114Z,14.60
2018-12-14T10:06:28.491Z,16.73
2018-12-14T10:08:57.333Z,14.47
2018-12-14T10:11:25.888Z,16.00
2018-12-14T10:14:00.664Z,15.27
2018-12-14T10:16:24.930Z,13.40
2018-12-14T10:18:53.851Z,18.83
2018-12-14T10:21:22.360Z,18.70
2018-12-14T10:23:51.750Z,15.23
2018-12-14T10:26:20.264Z,17.57
2018-12-14T10:28:49.388Z,15.13
2018-12-14T10:31:18.447Z,18.40
2018-12-14T10:33:47.001Z,18.30
2018-12-14T10:36:15.838Z,15.83
2018-12-14T10:38:45.172Z,17.20
2018-12-14T10:41:13.770Z,22.23
2018-12-14T10:43:42.223Z,18.73
2018-12-14T10:46:10.859Z,15.73
2018-12-14T10:48:40.313Z,16.90
2018-12-14T10:51:08.827Z,18.83
2018-12-14T10:53:37.473Z,15.30
2018-12-14T10:56:06.036Z,16.23
2018-12-14T10:58:34.511Z,16.13
2018-12-14T11:01:08.448Z,19.30
2018-12-14T11:03:37.240Z,17.33
2018-12-14T11:06:05.851Z,15.03
2018-12-14T11:08:34.380Z,17.13
2018-12-14T11:11:02.938Z,17.13
2018-12-14T11:13:31.589Z,15.30
2018-12-14T11:16:00.148Z,17.93
2018-12-14T11:18:28.680Z,14.63
2018-12-14T11:20:58.084Z,16.90
2018-12-14T11:23:27.550Z,17.30
2018-12-14T11:25:56.423Z,18.33
2018-12-14T11:28:25.351Z,15.37
2018-12-14T11:30:53.986Z,19.67
2018-12-14T11:33:22.541Z,17.37
2018-12-14T11:35:51.017Z,18.63
2018-12-14T11:38:19.797Z,17.17
2018-12-14T11:40:48.859Z,19.83
2018-12-14T11:43:18.231Z,18.93
2018-12-14T11:45:46.787Z,17.83
2018-12-14T11:48:15.446Z,19.40
2018-12-14T11:50:44.050Z,17.00
2018-12-14T11:53:16.836Z,17.20
2018-12-14T11:55:45.403Z,18.67
2018-12-14T11:58:13.912Z,16.73
2018-12-14T12:00:42.700Z,19.97
2018-12-14T12:03:11.207Z,17.20
2018-12-14T12:05:39.925Z,17.07
2018-12-14T12:08:10.481Z,20.13
2018-12-14T12:10:40.291Z,17.83
2018-12-14T12:13:09.379Z,18.23
2018-12-14T12:15:38.089Z,15.93
2018-12-14T12:18:06.571Z,17.60
2018-12-14T12:20:35.092Z,19.00
2018-12-14T12:23:03.641Z,18.37
2018-12-14T12:25:32.273Z,17.70
2018-12-14T12:28:00.854Z,17.50
2018-12-14T12:30:29.355Z,18.20
2018-12-14T12:32:58.655Z,14.03
2018-12-14T12:35:27.352Z,15.03
2018-12-14T12:37:56.085Z,16.27
2018-12-14T12:40:24.809Z,15.53
2018-12-14T12:42:53.564Z,15.77
2018-12-14T12:45:22.822Z,13.77
2018-12-14T12:47:51.544Z,16.93
2018-12-14T12:50:20.762Z,15.37
2018-12-14T12:52:49.356Z,14.97
2018-12-14T12:55:18.421Z,16.03
2018-12-14T12:57:47.060Z,16.50
2018-12-14T13:00:16.255Z,14.47
2018-12-14T13:02:44.809Z,16.10
2018-12-14T13:05:13.402Z,15.10
2018-12-14T13:07:42.019Z,14.93
2018-12-14T13:10:10.604Z,14.87
2018-12-14T13:12:39.287Z,16.43
2018-12-14T13:15:08.421Z,16.57
2018-12-14T13:17:37.478Z,13.87
2018-12-14T13:20:06.022Z,13.70
2018-12-14T13:22:35.778Z,13.13
2018-12-14T13:25:04.704Z,15.30
2018-12-14T13:27:33.815Z,15.00
2018-12-14T13:30:03.037Z,16.10
2018-12-14T13:32:31.802Z,16.13
2018-12-14T13:35:00.349Z,16.50
2018-12-14T13:37:28.867Z,17.43
2018-12-14T13:39:57.567Z,16.73
2018-12-14T13:42:26.296Z,14.77
2018-12-14T13:44:54.968Z,17.90
2018-12-14T13:47:23.754Z,19.33
2018-12-14T13:49:52.445Z,17.00
2018-12-14T13:52:22.358Z,15.93
2018-12-14T13:54:52.454Z,15.20
2018-12-14T13:57:20.964Z,16.83
2018-12-14T13:59:50.465Z,17.13
2018-12-14T14:02:19.003Z,13.63
2018-12-14T14:04:48.164Z,12.37
2018-12-14T14:07:16.712Z,17.30
2018-12-14T14:09:45.692Z,16.90
2018-12-14T14:12:15.098Z,16.23
2018-12-14T14:14:43.738Z,17.33
2018-12-14T14:17:12.438Z,15.87
2018-12-14T14:19:41.590Z,17.00
2018-12-14T14:22:11.836Z,16.63
2018-12-14T14:24:40.360Z,16.53
2018-12-14T14:27:08.992Z,14.00
2018-12-14T14:29:37.630Z,13.87
2018-12-14T14:32:06.476Z,18.13
2018-12-14T14:34:35.011Z,15.30
2018-12-14T14:37:03.777Z,18.10
2018-12-14T14:39:32.331Z,13.67
2018-12-14T14:42:00.835Z,16.83
2018-12-14T14:44:29.465Z,15.17
2018-12-14T14:46:58.312Z,15.97
2018-12-14T14:49:27.033Z,17.67
2018-12-14T14:51:55.701Z,15.83
2018-12-14T14:54:24.409Z,15.97
2018-12-14T14:56:52.974Z,14.80
2018-12-14T14:59:22.254Z,17.03
2018-12-14T15:01:50.893Z,16.60
2018-12-14T15:04:21.031Z,17.10
2018-12-14T15:06:49.672Z,16.43
2018-12-14T15:09:18.871Z,15.13
2018-12-14T15:11:48.091Z,17.40
2018-12-14T15:14:17.333Z,15.43
2018-12-14T15:16:46.000Z,17.47
2018-12-14T15:19:14.828Z,17.17
2018-12-14T15:21:44.167Z,16.50
2018-12-14T15:24:12.724Z,15.13
2018-12-14T15:26:41.385Z,17.00
2018-12-14T15:29:09.942Z,20.30
2018-12-14T15:31:38.549Z,17.07
2018-12-14T15:34:07.252Z,18.53
2018-12-14T15:36:35.968Z,15.93
2018-12-14T15:39:05.516Z,19.57
2018-12-14T15:41:34.101Z,16.83
2018-12-14T15:44:03.240Z,15.20
2018-12-14T15:46:32.619Z,15.67
2018-12-14T15:49:01.557Z,16.03
2018-12-14T15:51:30.318Z,16.67
2018-12-14T15:53:58.908Z,17.07
2018-12-14T15:56:27.455Z,15.43
2018-12-14T15:58:56.829Z,12.93
2018-12-14T16:01:26.049Z,16.20
2018-12-14T16:03:55.094Z,17.47
2018-12-14T16:06:23.955Z,18.57
2018-12-14T16:08:52.489Z,18.37
2018-12-14T16:11:21.591Z,17.17
2018-12-14T16:13:50.383Z,16.57
2018-12-14T16:16:19.022Z,16.83
2018-12-14T16:18:47.843Z,17.13
2018-12-14T16:21:16.655Z,17.40
2018-12-14T16:23:46.209Z,16.97
2018-12-14T16:26:14.944Z,18.63
2018-12-14T16:28:44.426Z,19.13
2018-12-14T16:31:12.961Z,16.57
2018-12-14T16:33:41.552Z,17.90
2018-12-14T16:36:10.042Z,16.20
2018-12-14T16:38:39.344Z,17.07
2018-12-14T16:41:07.869Z,17.50
2018-12-14T16:43:36.720Z,16.33
2018-12-14T16:46:06.254Z,16.67
2018-12-14T16:48:34.889Z,15.90
2018-12-14T16:51:03.437Z,18.07
2018-12-14T16:53:36.716Z,17.53
2018-12-14T16:56:06.000Z,18.23
2018-12-14T16:58:34.647Z,17.00
2018-12-14T17:01:03.305Z,16.40
2018-12-14T17:03:32.024Z,13.40
2018-12-14T17:06:00.695Z,19.37
2018-12-14T17:08:29.182Z,16.77
2018-12-14T17:10:58.393Z,16.57
2018-12-14T17:13:26.979Z,16.57
2018-12-14T17:15:55.625Z,16.17
2018-12-14T17:18:24.862Z,19.23
2018-12-14T17:20:54.233Z,17.17
2018-12-14T17:23:22.871Z,19.17
2018-12-14T17:25:51.739Z,17.37
2018-12-14T17:28:21.114Z,15.70
2018-12-14T17:30:49.792Z,17.00
2018-12-14T17:33:18.528Z,18.27
2018-12-14T17:35:47.461Z,19.13
2018-12-14T17:38:16.148Z,18.00
2018-12-14T17:40:44.918Z,18.40
2018-12-14T17:43:13.512Z,18.70
2018-12-14T17:45:42.757Z,16.50
2018-12-14T17:48:11.404Z,20.57
2018-12-14T17:50:40.164Z,21.07
2018-12-14T17:53:08.740Z,16.77
2018-12-14T17:55:37.420Z,17.20
2018-12-14T17:58:06.756Z,20.33
2018-12-14T18:00:35.536Z,17.07
2018-12-14T18:03:04.114Z,21.47
2018-12-14T18:05:33.409Z,16.80
2018-12-14T18:08:02.047Z,16.33
2018-12-14T18:10:30.786Z,14.10
2018-12-14T18:13:00.085Z,15.43
2018-12-14T18:15:28.714Z,17.57
2018-12-14T18:17:57.361Z,16.37
2018-12-14T18:20:26.002Z,14.07
2018-12-14T18:22:55.989Z,17.43
2018-12-14T18:25:25.255Z,15.43
2018-12-14T18:27:54.039Z,15.00
2018-12-14T18:30:22.654Z,18.27
2018-12-14T18:32:51.735Z,18.73
2018-12-14T18:35:20.561Z,15.57
2018-12-14T18:37:49.236Z,16.57
2018-12-14T18:40:17.898Z,15.33
2018-12-14T18:42:46.767Z,15.73
2018-12-14T18:45:15.364Z,17.03
2018-12-14T18:47:43.992Z,18.50
2018-12-14T18:50:12.561Z,16.30
2018-12-14T18:52:41.087Z,16.43
2018-12-14T18:55:10.027Z,18.63
2018-12-14T18:57:39.113Z,15.40
2018-12-14T19:00:09.839Z,17.57
2018-12-14T19:02:38.487Z,17.23
2018-12-14T19:05:07.945Z,18.03
2018-12-14T19:07:37.087Z,15.83
2018-12-14T19:10:06.433Z,16.40
2018-12-14T19:12:35.493Z,16.30
2018-12-14T19:15:04.709Z,17.17
2018-12-14T19:17:34.843Z,15.03
2018-12-14T19:20:03.655Z,16.90
2018-12-14T19:22:33.467Z,18.93
2018-12-14T19:25:02.617Z,12.93
2018-12-14T19:27:31.157Z,17.23
2018-12-14T19:30:00.234Z,16.90
2018-12-14T19:32:28.880Z,15.70
2018-12-14T19:34:57.447Z,20.10
2018-12-14T19:37:26.288Z,14.83
2018-12-14T19:39:55.009Z,16.70
2018-12-14T19:42:23.545Z,19.90
2018-12-14T19:44:52.112Z,16.80
2018-12-14T19:47:21.077Z,16.87
2018-12-14T19:49:49.622Z,16.47
2018-12-14T19:52:18.383Z,15.13
2018-12-14T19:54:46.955Z,18.03
2018-12-14T19:57:16.718Z,17.83
2018-12-14T19:59:45.426Z,15.33
2018-12-14T20:02:14.108Z,18.50
2018-12-14T20:04:42.709Z,16.20
2018-12-14T20:07:11.452Z,16.47
2018-12-14T20:09:40.237Z,14.07
2018-12-14T20:12:08.933Z,16.73
2018-12-14T20:14:37.530Z,14.90
2018-12-14T20:17:12.549Z,17.13
2018-12-14T20:19:41.221Z,15.70
2018-12-14T20:22:09.864Z,15.37
2018-12-14T20:24:39.353Z,19.20
2018-12-14T20:27:07.896Z,16.60
2018-12-14T20:29:36.415Z,17.90
2018-12-14T20:32:05.783Z,16.67
2018-12-14T20:34:34.321Z,17.13
2018-12-14T20:37:02.856Z,15.77
2018-12-14T20:39:31.420Z,15.43
2018-12-14T20:42:00.236Z,15.43
2018-12-14T20:44:28.896Z,15.40
2018-12-14T20:46:57.467Z,16.80
2018-12-14T20:49:26.279Z,17.17
2018-12-14T20:51:54.816Z,15.07
2018-12-14T20:54:24.104Z,15.90
2018-12-14T20:56:52.598Z,15.50
2018-12-14T20:59:21.247Z,17.50
2018-12-14T21:01:49.770Z,17.53
2018-12-14T21:04:18.303Z,16.23
2018-12-14T21:06:46.949Z,15.70
2018-12-14T21:09:16.189Z,15.87
2018-12-14T21:11:44.696Z,16.03
2018-12-14T21:14:13.348Z,12.60
2018-12-14T21:16:41.908Z,11.57
2018-12-14T21:19:10.488Z,17.63
2018-12-14T21:21:39.265Z,15.00
2018-12-14T21:24:08.077Z,17.00
2018-12-14T21:26:36.792Z,17.97
2018-12-14T21:29:05.312Z,18.07
2018-12-14T21:31:34.491Z,17.35
2018-12-14T21:34:03.132Z,19.00
2018-12-14T21:36:31.799Z,19.57
2018-12-14T21:39:00.934Z,16.67
2018-12-14T21:41:29.403Z,18.63
2018-12-14T21:43:58.687Z,16.90
2018-12-14T21:46:32.639Z,17.70
2018-12-14T21:48:58.480Z,17.77
2018-12-14T21:51:27.310Z,18.60
2018-12-14T21:53:55.869Z,19.73
2018-12-14T21:56:24.451Z,19.93
2018-12-14T21:58:54.405Z,17.43
2018-12-14T22:01:23.032Z,18.30
2018-12-14T22:03:51.918Z,18.50
2018-12-14T22:06:20.500Z,18.50
2018-12-14T22:08:49.008Z,18.23
2018-12-14T22:11:24.985Z,16.73
2018-12-14T22:13:54.071Z,17.33
2018-12-14T22:16:23.297Z,16.10
2018-12-14T22:18:51.923Z,17.27
2018-12-14T22:21:20.488Z,16.10
2018-12-14T22:23:49.939Z,16.70
2018-12-14T22:26:18.563Z,18.30
2018-12-14T22:28:47.164Z,17.70
2018-12-14T22:31:15.695Z,13.73
2018-12-14T22:33:44.503Z,15.77
2018-12-14T22:36:13.027Z,17.40
2018-12-14T22:38:41.523Z,15.17
2018-12-14T22:41:10.001Z,16.20
2018-12-14T22:43:38.745Z,17.93
2018-12-14T22:46:08.055Z,16.17
2018-12-14T22:48:36.612Z,16.57
2018-12-14T22:51:05.082Z,17.80
2018-12-14T22:53:33.610Z,12.77
2018-12-14T22:56:02.253Z,14.20
2018-12-14T22:58:31.423Z,12.13
2018-12-14T23:01:00.980Z,15.93
2018-12-14T23:03:29.715Z,15.57
2018-12-14T23:05:59.058Z,12.63
2018-12-14T23:08:28.034Z,16.87
2018-12-14T23:10:56.632Z,15.10
2018-12-14T23:13:25.330Z,16.77
2018-12-14T23:15:53.963Z,16.67
2018-12-14T23:18:22.693Z,14.30
2018-12-14T23:20:51.630Z,17.13
2018-12-14T23:23:20.339Z,15.80
2018-12-14T23:25:49.090Z,15.50
2018-12-14T23:28:17.977Z,18.10
2018-12-14T23:30:46.710Z,17.53
2018-12-14T23:33:15.420Z,17.77
2018-12-14T23:35:44.674Z,14.83
2018-12-14T23:38:13.422Z,15.67
2018-12-14T23:40:42.306Z,16.07
2018-12-14T23:43:11.488Z,13.80
2018-12-14T23:45:40.132Z,14.27
2018-12-14T23:48:08.905Z,14.93
2018-12-14T23:50:43.953Z,14.63
2018-12-14T23:53:13.193Z,17.37
2018-12-14T23:55:42.393Z,16.73
2018-12-14T23:58:10.832Z,17.30
